createdAt,value
2017-10-07T00:00:55.606Z,101196
2017-10-07T00:05:59.580Z,101202
2017-10-07T00:11:02.778Z,101199
2017-10-07T00:16:06.418Z,101211
2017-10-07T00:21:09.633Z,101226
2017-10-07T00:26:12.833Z,101222
2017-10-07T00:31:16.026Z,101208
2017-10-07T00:36:19.211Z,101210
2017-10-07T00:41:22.546Z,101223
2017-10-07T00:46:25.718Z,101227
2017-10-07T00:51:28.928Z,101231
2017-10-07T00:56:32.081Z,101221
2017-10-07T01:01:35.549Z,101206
2017-10-07T01:06:38.894Z,101205
2017-10-07T01:11:42.086Z,101204
2017-10-07T01:16:45.253Z,101202
2017-10-07T01:21:48.417Z,101193
2017-10-07T01:26:51.663Z,101179
2017-10-07T01:31:54.877Z,101179
2017-10-07T01:36:58.049Z,101173
2017-10-07T01:42:01.229Z,101176
2017-10-07T01:47:04.430Z,101165
2017-10-07T01:52:07.601Z,101159
2017-10-07T01:57:10.788Z,101164
2017-10-07T02:02:14.738Z,101155
2017-10-07T02:07:17.917Z,101165
2017-10-07T02:12:21.882Z,101157
2017-10-07T02:17:25.078Z,101159
2017-10-07T02:22:28.260Z,101164
2017-10-07T02:27:31.449Z,101152
2017-10-07T02:32:35.415Z,101147
2017-10-07T02:37:38.589Z,101142
2017-10-07T02:42:42.570Z,101149
2017-10-07T02:47:45.745Z,101151
2017-10-07T02:52:48.927Z,101142
2017-10-07T02:57:52.105Z,101143
2017-10-07T03:02:55.288Z,101153
2017-10-07T03:07:58.469Z,101155
2017-10-07T03:13:01.655Z,101152
2017-10-07T03:18:05.598Z,101157
2017-10-07T03:23:08.797Z,101157
2017-10-07T03:28:11.988Z,101160
2017-10-07T03:33:15.948Z,101145
2017-10-07T03:38:19.121Z,101152
2017-10-07T03:43:22.301Z,101150
2017-10-07T03:48:25.495Z,101164
2017-10-07T03:53:28.658Z,101155
2017-10-07T03:58:31.869Z,101158
2017-10-07T04:03:35.173Z,101140
2017-10-07T04:08:38.345Z,101138
2017-10-07T04:13:43.158Z,101141
2017-10-07T04:18:46.366Z,101141
2017-10-07T04:23:49.534Z,101136
2017-10-07T04:28:52.747Z,101142
2017-10-07T04:33:55.940Z,101141
2017-10-07T04:38:59.185Z,101138
2017-10-07T04:44:02.366Z,101145
2017-10-07T04:49:05.549Z,101145
2017-10-07T04:54:09.480Z,101129
2017-10-07T04:59:13.416Z,101131
2017-10-07T05:04:16.577Z,101122
2017-10-07T05:09:19.772Z,101112
2017-10-07T05:14:23.860Z,101118
2017-10-07T05:19:27.086Z,101113
2017-10-07T05:24:30.272Z,101117
2017-10-07T05:29:33.435Z,101112
2017-10-07T05:34:36.638Z,101107
2017-10-07T05:39:39.829Z,101113
2017-10-07T05:44:43.006Z,101115
2017-10-07T05:49:46.253Z,101120
2017-10-07T05:54:49.434Z,101121
2017-10-07T05:59:53.340Z,101131
2017-10-07T06:04:56.545Z,101135
2017-10-07T06:09:59.708Z,101132
2017-10-07T06:15:02.868Z,101144
2017-10-07T06:20:06.032Z,101145
2017-10-07T06:25:10.015Z,101146
2017-10-07T06:30:13.185Z,101143
2017-10-07T06:35:16.387Z,101142
2017-10-07T06:40:19.585Z,101132
2017-10-07T06:45:22.786Z,101132
2017-10-07T06:50:26.725Z,101136
2017-10-07T06:55:29.917Z,101127
2017-10-07T07:00:33.877Z,101126
2017-10-07T07:05:37.076Z,101125
2017-10-07T07:10:40.269Z,101111
2017-10-07T07:15:43.479Z,101123
2017-10-07T07:20:46.669Z,101125
2017-10-07T07:25:49.856Z,101119
2017-10-07T07:30:53.067Z,101122
2017-10-07T07:35:56.285Z,101119
2017-10-07T07:41:00.321Z,101128
2017-10-07T07:46:04.395Z,101120
2017-10-07T07:51:07.702Z,101125
2017-10-07T07:56:10.941Z,101124
2017-10-07T08:01:14.115Z,101118
2017-10-07T08:06:17.314Z,101119
2017-10-07T08:11:20.533Z,101122
2017-10-07T08:16:23.722Z,101132
2017-10-07T08:21:26.958Z,101133
2017-10-07T08:26:30.159Z,101127
2017-10-07T08:31:33.330Z,101132
2017-10-07T08:36:36.517Z,101132
2017-10-07T08:41:39.704Z,101125
2017-10-07T08:46:43.663Z,101128
2017-10-07T08:51:46.860Z,101119
2017-10-07T08:56:50.282Z,101104
2017-10-07T09:01:53.491Z,101108
2017-10-07T09:06:59.204Z,101102
2017-10-07T09:12:02.506Z,101107
2017-10-07T09:17:05.702Z,101089
2017-10-07T09:22:08.905Z,101089
2017-10-07T09:27:12.136Z,101085
2017-10-07T09:32:15.334Z,101090
2017-10-07T09:37:18.556Z,101066
2017-10-07T09:42:22.524Z,101061
2017-10-07T09:47:25.749Z,101043
2017-10-07T09:52:29.056Z,101032
2017-10-07T09:57:32.213Z,101040
2017-10-07T10:02:36.164Z,101016
2017-10-07T10:07:39.360Z,101008
2017-10-07T10:12:44.004Z,100999
2017-10-07T10:17:48.258Z,100995
2017-10-07T10:22:51.483Z,100995
2017-10-07T10:27:54.666Z,101000
2017-10-07T10:32:58.656Z,100972
2017-10-07T10:38:02.664Z,100983
2017-10-07T10:43:08.966Z,100981
2017-10-07T10:48:16.745Z,100955
2017-10-07T10:53:19.999Z,100951
2017-10-07T10:58:23.186Z,100944
2017-10-07T11:03:27.984Z,100937
2017-10-07T11:08:31.221Z,100923
2017-10-07T11:13:35.486Z,100900
2017-10-07T11:18:38.817Z,100890
2017-10-07T11:23:45.700Z,100894
2017-10-07T11:28:48.918Z,100879
2017-10-07T11:33:54.806Z,100883
2017-10-07T11:39:00.488Z,100862
2017-10-07T11:44:04.145Z,100856
2017-10-07T11:49:07.660Z,100844
2017-10-07T11:54:10.870Z,100844
2017-10-07T11:59:14.057Z,100832
2017-10-07T12:04:18.034Z,100828
2017-10-07T12:09:21.214Z,100817
2017-10-07T12:14:24.405Z,100807
2017-10-07T12:19:27.636Z,100803
2017-10-07T12:24:30.970Z,100802
2017-10-07T12:29:34.170Z,100797
2017-10-07T12:34:37.379Z,100784
2017-10-07T12:39:40.592Z,100775
2017-10-07T12:44:43.803Z,100774
2017-10-07T12:49:47.009Z,100768
2017-10-07T12:54:50.224Z,100753
2017-10-07T12:59:53.470Z,100750
2017-10-07T13:04:56.669Z,100742
2017-10-07T13:09:59.862Z,100749
2017-10-07T13:15:03.837Z,100741
2017-10-07T13:20:07.045Z,100733
2017-10-07T13:25:10.237Z,100727
2017-10-07T13:30:13.427Z,100726
2017-10-07T13:35:16.606Z,100726
2017-10-07T13:40:20.573Z,100717
2017-10-07T13:45:23.765Z,100717
2017-10-07T13:50:26.962Z,100714
2017-10-07T13:55:30.934Z,100706
2017-10-07T14:00:34.140Z,100688
2017-10-07T14:05:37.338Z,100679
2017-10-07T14:10:40.530Z,100679
2017-10-07T14:15:43.749Z,100660
2017-10-07T14:20:46.978Z,100666
2017-10-07T14:25:50.187Z,100659
2017-10-07T14:30:53.392Z,100656
2017-10-07T14:35:56.599Z,100641
2017-10-07T14:40:59.843Z,100622
2017-10-07T14:46:03.820Z,100618
2017-10-07T14:51:07.021Z,100608
2017-10-07T14:56:11.065Z,100610
2017-10-07T15:01:14.284Z,100596
2017-10-07T15:06:17.510Z,100560
2017-10-07T15:11:21.480Z,100557
2017-10-07T15:16:24.682Z,100558
2017-10-07T15:21:28.024Z,100555
2017-10-07T15:26:31.245Z,100546
2017-10-07T15:31:34.482Z,100538
2017-10-07T15:36:37.689Z,100525
2017-10-07T15:41:40.933Z,100523
2017-10-07T15:46:44.075Z,100516
2017-10-07T15:51:48.037Z,100508
2017-10-07T15:56:51.228Z,100502
2017-10-07T16:01:54.437Z,100500
2017-10-07T16:06:59.508Z,100497
2017-10-07T16:12:02.711Z,100500
2017-10-07T16:17:05.909Z,100485
2017-10-07T16:22:09.093Z,100479
2017-10-07T16:27:13.113Z,100468
2017-10-07T16:32:17.106Z,100477
2017-10-07T16:37:20.311Z,100476
2017-10-07T16:42:23.881Z,100462
2017-10-07T16:47:28.675Z,100446
2017-10-07T16:52:31.898Z,100444
2017-10-07T16:57:35.914Z,100441
2017-10-07T17:02:39.365Z,100431
2017-10-07T17:07:43.878Z,100427
2017-10-07T17:12:47.103Z,100424
2017-10-07T17:17:51.302Z,100425
2017-10-07T17:22:54.548Z,100414
2017-10-07T17:27:57.903Z,100410
2017-10-07T17:33:01.162Z,100404
2017-10-07T17:38:06.535Z,100404
2017-10-07T17:43:10.993Z,100409
2017-10-07T17:48:17.331Z,100398
2017-10-07T17:53:21.312Z,100385
2017-10-07T17:58:27.520Z,100384
2017-10-07T18:03:31.610Z,100376
2017-10-07T18:08:34.848Z,100377
2017-10-07T18:13:38.078Z,100367
2017-10-07T18:18:42.192Z,100376
2017-10-07T18:23:46.234Z,100363
2017-10-07T18:28:50.190Z,100352
2017-10-07T18:33:53.372Z,100349
2017-10-07T18:38:56.586Z,100355
2017-10-07T18:43:59.806Z,100349
2017-10-07T18:49:03.137Z,100351
2017-10-07T18:54:06.338Z,100351
2017-10-07T18:59:09.523Z,100359
2017-10-07T19:04:12.863Z,100347
2017-10-07T19:09:16.083Z,100348
2017-10-07T19:14:19.448Z,100356
2017-10-07T19:19:23.040Z,100342
2017-10-07T19:24:26.297Z,100358
2017-10-07T19:29:29.527Z,100351
2017-10-07T19:34:33.318Z,100345
2017-10-07T19:39:36.714Z,100345
2017-10-07T19:44:40.069Z,100336
2017-10-07T19:49:43.487Z,100332
2017-10-07T19:54:47.507Z,100333
2017-10-07T19:59:50.872Z,100330
2017-10-07T20:04:54.162Z,100321
2017-10-07T20:09:57.369Z,100311
2017-10-07T20:15:01.700Z,100312
2017-10-07T20:20:04.904Z,100296
2017-10-07T20:25:19.065Z,100296
2017-10-07T20:30:23.386Z,100297
2017-10-07T20:35:28.070Z,100272
2017-10-07T20:40:32.274Z,100277
2017-10-07T20:45:36.312Z,100274
2017-10-07T20:50:39.543Z,100274
2017-10-07T20:55:42.730Z,100271
2017-10-07T21:00:46.373Z,100266
2017-10-07T21:05:49.569Z,100269
2017-10-07T21:10:52.761Z,100270
2017-10-07T21:15:55.989Z,100259
2017-10-07T21:20:59.193Z,100257
2017-10-07T21:26:02.395Z,100252
2017-10-07T21:31:05.566Z,100249
2017-10-07T21:36:09.674Z,100244
2017-10-07T21:41:13.632Z,100228
2017-10-07T21:46:16.821Z,100213
2017-10-07T21:51:20.762Z,100222
2017-10-07T21:56:23.981Z,100223
2017-10-07T22:01:27.580Z,100215
2017-10-07T22:06:30.784Z,100205
2017-10-07T22:11:34.753Z,100206
2017-10-07T22:16:37.943Z,100194
2017-10-07T22:21:41.185Z,100186
2017-10-07T22:26:44.383Z,100176
2017-10-07T22:31:47.593Z,100182
2017-10-07T22:36:50.814Z,100173
2017-10-07T22:41:54.009Z,100182
2017-10-07T22:46:57.214Z,100178
2017-10-07T22:52:00.474Z,100173
2017-10-07T22:57:03.845Z,100164
2017-10-07T23:02:07.125Z,100165
2017-10-07T23:07:10.316Z,100162
2017-10-07T23:12:13.537Z,100143
2017-10-07T23:17:16.819Z,100140
2017-10-07T23:22:35.937Z,100152
2017-10-07T23:27:39.150Z,100147
2017-10-07T23:32:42.349Z,100149
2017-10-07T23:37:45.554Z,100140
2017-10-07T23:42:48.760Z,100147
2017-10-07T23:47:51.968Z,100150
2017-10-07T23:52:55.178Z,100152
2017-10-07T23:57:58.374Z,100155
